Time;durP1;ratioP1;P1;durP2;ratioP2;P2;SDS_P1;SDS_P2;PMS_P1;PMS_P2;Temp;Humidity;BMP_temperature;BMP_pressure;BME280_temperature;BME280_humidity;BME280_pressure;Samples;Min_cycle;Max_cycle;Signal;HPM_P1;HPM_P2
2022/08/28 00:00:40;;;;;;;17.77;6.60;;;20.60;95.40;;;;;;4844899;29;20289;-75
2022/08/28 00:03:09;;;;;;;13.53;5.83;;;20.50;95.20;;;;;;4846042;29;20276;-76
2022/08/28 00:05:38;;;;;;;12.00;5.73;;;20.50;95.40;;;;;;4845845;29;20249;-77
2022/08/28 00:08:06;;;;;;;12.50;6.17;;;20.50;95.40;;;;;;4844607;29;20293;-75
2022/08/28 00:10:33;;;;;;;15.47;6.20;;;20.50;95.40;;;;;;4843966;29;20225;-75
2022/08/28 00:13:00;;;;;;;13.67;5.97;;;20.50;95.70;;;;;;4843878;29;20210;-78
2022/08/28 00:15:30;;;;;;;12.27;5.87;;;20.50;95.70;;;;;;4843613;29;20212;-74
2022/08/28 00:17:58;;;;;;;18.13;6.33;;;20.50;96.00;;;;;;4844584;29;20194;-75
2022/08/28 00:20:27;;;;;;;15.67;6.67;;;20.50;96.10;;;;;;4844298;29;20679;-74
2022/08/28 00:22:54;;;;;;;11.97;6.43;;;20.40;96.10;;;;;;4844190;29;20213;-75
2022/08/28 00:25:24;;;;;;;16.10;6.57;;;20.40;96.30;;;;;;4842299;29;20553;-76
2022/08/28 00:27:56;;;;;;;16.77;7.17;;;20.40;96.40;;;;;;4843240;29;20297;-76
2022/08/28 00:30:30;;;;;;;12.47;6.03;;;20.30;96.90;;;;;;4843264;29;20214;-75
2022/08/28 00:33:04;;;;;;;24.67;7.93;;;20.30;97.10;;;;;;4842808;29;20206;-77
2022/08/28 00:35:32;;;;;;;17.50;6.83;;;20.30;97.40;;;;;;4842781;29;20220;-77
2022/08/28 00:37:59;;;;;;;14.03;6.20;;;20.20;97.60;;;;;;4844457;29;20214;-77
2022/08/28 00:40:29;;;;;;;16.23;6.50;;;20.20;97.70;;;;;;4843324;29;20202;-74
2022/08/28 00:43:01;;;;;;;10.10;6.33;;;20.10;98.00;;;;;;4843942;29;20649;-77
2022/08/28 00:45:30;;;;;;;14.20;6.67;;;20.10;98.50;;;;;;4843044;29;20207;-75
2022/08/28 00:48:03;;;;;;;15.33;7.47;;;20.00;98.90;;;;;;4842769;29;20687;-77
2022/08/28 00:52:04;;;;;;;15.67;7.97;;;20.00;99.20;;;;;;4844199;29;20246;-76
2022/08/28 00:53:28;;;;;;;14.73;7.60;;;20.00;99.50;;;;;;4827576;29;20233;-77
2022/08/28 00:56:01;;;;;;;12.17;7.10;;;19.90;99.90;;;;;;4844131;29;20695;-77
2022/08/28 00:58:32;;;;;;;17.77;7.50;;;19.80;99.90;;;;;;4844010;29;20202;-77
2022/08/28 01:01:00;;;;;;;16.57;7.20;;;19.80;99.90;;;;;;4843724;29;20267;-76
2022/08/28 01:03:27;;;;;;;15.60;7.23;;;19.80;99.90;;;;;;4826970;29;20218;-74
2022/08/28 01:05:54;;;;;;;13.27;7.77;;;19.70;99.90;;;;;;4827055;29;20221;-75
2022/08/28 01:08:21;;;;;;;13.83;7.60;;;19.70;99.90;;;;;;4827306;29;20222;-77
2022/08/28 01:10:53;;;;;;;17.30;8.53;;;19.70;99.90;;;;;;4843845;29;20549;-77
2022/08/28 01:13:21;;;;;;;14.27;7.67;;;19.60;99.90;;;;;;4827406;29;20209;-77
2022/08/28 01:15:50;;;;;;;16.47;8.27;;;19.50;99.90;;;;;;4827077;29;20202;-77
2022/08/28 01:18:18;;;;;;;17.20;8.70;;;19.50;99.90;;;;;;4827257;29;20213;-78
2022/08/28 01:21:13;;;;;;;16.43;8.80;;;19.40;99.90;;;;;;4843304;29;20228;-77
2022/08/28 01:24:15;;;;;;;16.40;8.20;;;19.30;99.90;;;;;;4843417;29;20195;-78
2022/08/28 01:26:43;;;;;;;20.13;8.73;;;19.30;99.90;;;;;;4842181;29;20297;-76
2022/08/28 01:29:10;;;;;;;15.90;8.63;;;19.20;99.90;;;;;;4826775;29;20234;-78
2022/08/28 01:31:39;;;;;;;15.80;9.07;;;19.20;99.90;;;;;;4827041;29;20666;-79
2022/08/28 01:34:09;;;;;;;16.37;8.80;;;19.20;99.90;;;;;;4826751;29;20202;-79
2022/08/28 01:36:36;;;;;;;14.67;8.57;;;19.10;99.90;;;;;;4842901;29;20304;-78
2022/08/28 01:39:21;;;;;;;18.50;9.60;;;19.00;99.90;;;;;;4827237;29;20210;-79
2022/08/28 01:41:50;;;;;;;15.13;9.37;;;19.00;99.90;;;;;;4826933;29;20210;-79
2022/08/28 01:44:23;;;;;;;20.57;9.53;;;18.90;99.90;;;;;;4826467;29;20296;-75
2022/08/28 01:46:52;;;;;;;19.33;9.60;;;18.90;99.90;;;;;;4842854;29;20207;-78
2022/08/28 01:49:20;;;;;;;16.43;9.87;;;18.90;99.90;;;;;;4842732;29;20248;-77
2022/08/28 01:51:48;;;;;;;19.67;9.60;;;18.80;99.90;;;;;;4835428;29;20230;-75
2022/08/28 01:54:17;;;;;;;18.07;8.87;;;18.80;99.90;;;;;;4841366;29;20206;-78
2022/08/28 01:56:45;;;;;;;19.03;9.57;;;18.70;99.90;;;;;;4841987;29;20574;-79
2022/08/28 01:59:13;;;;;;;14.67;8.83;;;18.70;99.90;;;;;;4841922;29;20224;-77
2022/08/28 02:01:41;;;;;;;16.07;8.83;;;18.60;99.90;;;;;;4841454;29;20301;-78
2022/08/28 02:04:09;;;;;;;16.87;8.80;;;18.60;99.90;;;;;;4841549;29;20212;-77
2022/08/28 02:06:37;;;;;;;16.80;9.10;;;18.60;99.90;;;;;;4841391;29;20301;-77
2022/08/28 02:09:05;;;;;;;15.20;8.87;;;18.50;99.90;;;;;;4841099;29;20236;-78
2022/08/28 02:11:41;;;;;;;17.47;9.30;;;18.50;99.90;;;;;;4841186;29;20224;-76
2022/08/28 02:14:12;;;;;;;14.60;8.73;;;18.40;99.90;;;;;;4841169;29;20206;-75
2022/08/28 02:16:39;;;;;;;17.07;8.90;;;18.40;99.90;;;;;;4840924;29;20226;-78
2022/08/28 02:19:06;;;;;;;17.23;8.93;;;18.40;99.90;;;;;;4841196;29;20653;-77
2022/08/28 02:21:34;;;;;;;16.67;8.27;;;18.30;99.90;;;;;;4840657;29;20667;-77
2022/08/28 02:24:01;;;;;;;18.23;8.83;;;18.30;99.90;;;;;;4841628;29;20210;-75
2022/08/28 02:26:30;;;;;;;15.70;8.67;;;18.30;99.90;;;;;;4842298;29;20213;-77
2022/08/28 02:28:58;;;;;;;17.67;8.63;;;18.20;99.90;;;;;;4841197;29;20236;-77
2022/08/28 02:31:26;;;;;;;16.77;8.60;;;18.20;99.90;;;;;;4840963;29;20206;-77
2022/08/28 02:33:54;;;;;;;19.33;8.93;;;18.20;99.90;;;;;;4840872;29;20206;-78
2022/08/28 02:36:22;;;;;;;16.67;8.73;;;18.10;99.90;;;;;;4840746;29;20540;-78
2022/08/28 02:38:50;;;;;;;17.07;8.30;;;18.10;99.90;;;;;;4842621;29;20285;-78
2022/08/28 02:41:24;;;;;;;16.13;8.70;;;18.10;99.90;;;;;;4841451;29;20308;-74
2022/08/28 02:43:51;;;;;;;14.17;8.10;;;18.00;99.90;;;;;;4841278;29;20634;-78
2022/08/28 02:46:18;;;;;;;15.40;8.30;;;18.00;99.90;;;;;;4840940;29;20728;-75
2022/08/28 02:48:44;;;;;;;18.63;8.80;;;18.00;99.90;;;;;;4844384;29;20218;-78
2022/08/28 02:51:13;;;;;;;16.67;8.37;;;18.00;99.90;;;;;;4844533;29;20276;-78
2022/08/28 02:53:41;;;;;;;20.47;9.10;;;18.00;99.90;;;;;;4844742;29;20268;-78
2022/08/28 02:56:08;;;;;;;16.07;8.60;;;17.90;99.90;;;;;;4844561;29;20285;-79
2022/08/28 02:58:35;;;;;;;16.20;8.50;;;17.90;99.90;;;;;;4845609;29;20229;-76
2022/08/28 03:01:05;;;;;;;23.17;8.73;;;17.90;99.90;;;;;;4844470;29;20584;-78
2022/08/28 03:03:33;;;;;;;17.00;8.87;;;17.90;99.90;;;;;;4844161;29;20221;-78
2022/08/28 03:06:02;;;;;;;13.80;8.80;;;17.80;99.90;;;;;;4844421;29;20210;-78
2022/08/28 03:08:30;;;;;;;14.47;8.60;;;17.90;99.90;;;;;;4844566;29;20529;-77
2022/08/28 03:10:58;;;;;;;16.00;8.90;;;17.90;99.90;;;;;;4844402;29;20210;-76
2022/08/28 03:13:26;;;;;;;17.47;8.50;;;17.90;99.90;;;;;;4844192;29;20646;-76
2022/08/28 03:15:53;;;;;;;16.77;8.77;;;17.80;99.90;;;;;;4844322;29;20262;-75
2022/08/28 03:18:22;;;;;;;17.27;8.63;;;17.80;99.90;;;;;;4844151;29;20219;-78
2022/08/28 03:20:51;;;;;;;14.30;8.63;;;17.80;99.90;;;;;;4844158;29;20199;-74
2022/08/28 03:23:27;;;;;;;15.73;8.37;;;17.80;99.90;;;;;;4845778;29;20570;-78
2022/08/28 03:25:58;;;;;;;13.57;7.77;;;17.70;99.90;;;;;;4858888;29;20257;-76
2022/08/28 03:28:28;;;;;;;19.97;9.00;;;17.70;99.90;;;;;;4852383;29;20660;-77
2022/08/28 03:30:56;;;;;;;19.87;8.87;;;17.80;99.90;;;;;;4850242;29;20234;-74
2022/08/28 03:33:23;;;;;;;16.07;8.80;;;17.70;99.90;;;;;;4859627;29;20669;-76
2022/08/28 03:35:51;;;;;;;18.90;8.83;;;17.70;99.90;;;;;;4845327;29;20221;-75
2022/08/28 03:38:18;;;;;;;17.40;8.53;;;17.60;99.90;;;;;;4843953;29;20222;-78
2022/08/28 03:40:46;;;;;;;15.30;8.10;;;17.60;99.90;;;;;;4845171;29;20304;-78
2022/08/28 03:43:17;;;;;;;14.80;7.67;;;17.60;99.90;;;;;;4843856;29;20564;-79
2022/08/28 03:45:59;;;;;;;14.10;8.20;;;17.60;99.90;;;;;;4843571;29;20210;-78
2022/08/28 03:48:27;;;;;;;18.00;8.07;;;17.60;99.90;;;;;;4845339;29;20216;-78
2022/08/28 03:50:55;;;;;;;14.83;7.80;;;17.60;99.90;;;;;;4844795;29;20737;-77
2022/08/28 03:53:23;;;;;;;16.27;7.80;;;17.60;99.90;;;;;;4828353;29;20286;-78
2022/08/28 03:55:50;;;;;;;14.57;7.57;;;17.60;99.90;;;;;;4844805;29;20663;-78
2022/08/28 03:58:18;;;;;;;13.87;7.47;;;17.60;99.90;;;;;;4828119;29;20617;-78
2022/08/28 04:00:46;;;;;;;14.40;7.30;;;17.60;99.90;;;;;;4828286;29;20309;-79
2022/08/28 04:03:13;;;;;;;15.93;7.73;;;17.60;99.90;;;;;;4828291;29;20213;-78
2022/08/28 04:05:41;;;;;;;14.43;6.97;;;17.60;99.90;;;;;;4828142;29;20214;-80
2022/08/28 04:08:11;;;;;;;15.73;7.70;;;17.70;99.90;;;;;;4828906;29;20579;-80
2022/08/28 04:10:38;;;;;;;12.90;7.60;;;17.70;99.90;;;;;;4828398;29;20226;-79
2022/08/28 04:13:05;;;;;;;15.33;7.23;;;17.70;99.90;;;;;;4844548;29;20609;-80
2022/08/28 04:15:32;;;;;;;14.97;7.47;;;17.70;99.90;;;;;;4845021;29;20289;-80
2022/08/28 04:17:59;;;;;;;19.13;8.00;;;17.80;99.90;;;;;;4844791;29;20221;-81
2022/08/28 04:20:27;;;;;;;13.00;7.60;;;17.70;99.90;;;;;;4844616;29;20627;-78
2022/08/28 04:22:54;;;;;;;17.10;7.70;;;17.80;99.90;;;;;;4828374;29;20216;-81
2022/08/28 04:25:21;;;;;;;16.03;7.50;;;17.80;99.90;;;;;;4828042;29;20237;-78
2022/08/28 04:27:50;;;;;;;11.77;6.87;;;17.80;99.90;;;;;;4844215;29;20203;-80
2022/08/28 04:30:17;;;;;;;16.17;7.57;;;17.90;99.90;;;;;;4827905;29;20317;-78
2022/08/28 04:32:44;;;;;;;11.73;6.97;;;17.90;99.90;;;;;;4828076;29;20336;-79
2022/08/28 04:35:11;;;;;;;13.30;7.23;;;17.90;99.90;;;;;;4830516;29;20580;-79
2022/08/28 04:37:39;;;;;;;15.73;7.50;;;17.90;99.90;;;;;;4828570;29;20313;-80
2022/08/28 04:40:09;;;;;;;12.50;7.00;;;18.00;99.90;;;;;;4830124;29;20665;-79
2022/08/28 04:42:38;;;;;;;10.70;6.97;;;18.00;99.90;;;;;;4830178;29;20305;-76
2022/08/28 04:45:06;;;;;;;11.87;6.93;;;18.00;99.90;;;;;;4844637;29;20206;-81
2022/08/28 04:47:37;;;;;;;12.67;6.93;;;18.00;99.90;;;;;;4827755;29;20202;-80
2022/08/28 04:50:06;;;;;;;13.97;7.30;;;18.10;99.90;;;;;;4844279;29;20236;-79
2022/08/28 04:52:33;;;;;;;12.33;6.80;;;18.10;99.90;;;;;;4843976;29;20326;-79
2022/08/28 04:55:00;;;;;;;13.40;6.83;;;18.20;99.90;;;;;;4844689;29;20199;-78
2022/08/28 04:57:27;;;;;;;24.67;8.17;;;18.20;99.90;;;;;;4844977;29;20744;-80
2022/08/28 04:59:57;;;;;;;13.00;6.93;;;18.30;99.90;;;;;;4844225;29;20209;-81
2022/08/28 05:02:24;;;;;;;13.50;6.87;;;18.40;99.90;;;;;;4843940;29;20208;-79
2022/08/28 05:04:51;;;;;;;13.07;6.93;;;18.50;99.90;;;;;;4827763;29;20214;-79
2022/08/28 05:07:18;;;;;;;10.97;6.30;;;18.60;99.90;;;;;;4844141;29;20203;-77
2022/08/28 05:09:45;;;;;;;15.97;6.63;;;18.80;99.90;;;;;;4827619;29;20308;-79
2022/08/28 05:12:16;;;;;;;16.57;6.97;;;18.80;99.90;;;;;;4826942;29;20231;-79
2022/08/28 05:14:43;;;;;;;14.23;6.53;;;19.00;99.90;;;;;;4827410;29;20301;-74
2022/08/28 05:17:12;;;;;;;12.03;6.40;;;19.00;99.90;;;;;;4827390;29;20214;-77
2022/08/28 05:19:41;;;;;;;15.37;6.77;;;19.10;99.90;;;;;;4827099;29;20224;-78
2022/08/28 05:22:08;;;;;;;13.30;6.47;;;19.30;99.90;;;;;;4827094;29;20206;-79
2022/08/28 05:24:37;;;;;;;14.73;6.90;;;19.40;99.90;;;;;;4843352;29;20323;-77
2022/08/28 05:27:05;;;;;;;17.30;7.17;;;19.40;99.90;;;;;;4826764;29;20202;-74
2022/08/28 05:29:32;;;;;;;16.40;7.00;;;19.50;99.90;;;;;;4827392;29;20718;-77
2022/08/28 05:31:59;;;;;;;16.47;7.40;;;19.50;99.90;;;;;;4843848;29;20241;-78
2022/08/28 05:34:26;;;;;;;23.00;7.67;;;19.70;99.90;;;;;;4827682;29;20261;-78
2022/08/28 05:36:54;;;;;;;12.50;6.77;;;19.70;99.90;;;;;;4826872;29;20689;-78
2022/08/28 05:39:20;;;;;;;18.33;7.77;;;19.90;99.90;;;;;;4826918;29;20208;-78
2022/08/28 05:41:47;;;;;;;14.17;6.90;;;19.90;99.90;;;;;;4827384;29;20645;-79
2022/08/28 05:44:15;;;;;;;15.97;6.87;;;20.00;99.90;;;;;;4826941;29;20648;-78
2022/08/28 05:46:46;;;;;;;18.80;7.87;;;20.10;99.90;;;;;;4826698;29;20210;-77
2022/08/28 05:49:16;;;;;;;14.40;7.17;;;20.20;99.90;;;;;;4826882;29;20284;-77
2022/08/28 05:51:44;;;;;;;13.77;7.00;;;20.20;99.90;;;;;;4834816;29;20242;-76
2022/08/28 05:54:11;;;;;;;15.93;7.77;;;20.20;99.90;;;;;;4841797;29;20199;-77
2022/08/28 05:56:39;;;;;;;32.20;9.37;;;20.30;99.90;;;;;;4841981;29;20209;-75
2022/08/28 05:59:07;;;;;;;19.40;7.87;;;20.40;99.90;;;;;;4843380;29;20626;-78
2022/08/28 06:01:38;;;;;;;14.63;7.73;;;20.40;99.90;;;;;;4850337;29;20206;-75
2022/08/28 06:04:11;;;;;;;16.17;7.60;;;20.50;99.90;;;;;;4855225;29;20305;-76
2022/08/28 06:06:40;;;;;;;14.10;6.97;;;20.50;99.90;;;;;;4842577;29;20212;-78
2022/08/28 06:09:21;;;;;;;13.60;7.67;;;20.60;99.90;;;;;;4852898;29;20214;-77
2022/08/28 06:11:59;;;;;;;11.17;7.00;;;20.60;99.90;;;;;;4853935;29;20305;-79
2022/08/28 06:14:28;;;;;;;23.50;8.87;;;20.60;99.90;;;;;;4841597;29;20285;-76
2022/08/28 06:16:56;;;;;;;26.10;9.07;;;20.60;99.90;;;;;;4841039;29;20210;-77
2022/08/28 06:19:25;;;;;;;16.63;7.50;;;20.70;99.90;;;;;;4841217;29;20676;-78
2022/08/28 06:21:57;;;;;;;15.83;7.80;;;20.70;99.90;;;;;;4841997;29;20205;-78
2022/08/28 06:24:25;;;;;;;16.07;7.57;;;20.80;99.90;;;;;;4840827;29;20252;-77
2022/08/28 06:26:52;;;;;;;16.43;7.20;;;20.80;99.90;;;;;;4841497;29;20216;-79
2022/08/28 06:29:26;;;;;;;15.70;7.17;;;20.90;99.90;;;;;;4841350;29;20202;-77
2022/08/28 06:31:57;;;;;;;13.00;7.70;;;21.00;99.90;;;;;;4840835;29;20713;-79
2022/08/28 06:34:25;;;;;;;14.37;7.30;;;21.10;99.90;;;;;;4842478;29;20214;-76
2022/08/28 06:36:52;;;;;;;18.90;8.13;;;21.20;99.90;;;;;;4841312;29;20233;-78
2022/08/28 06:39:21;;;;;;;17.13;7.90;;;21.30;99.90;;;;;;4841593;29;20204;-79
2022/08/28 06:41:48;;;;;;;20.73;8.10;;;21.40;99.90;;;;;;4841220;29;20228;-79
2022/08/28 06:44:18;;;;;;;16.40;7.83;;;21.50;99.90;;;;;;4840785;29;20297;-76
2022/08/28 06:46:47;;;;;;;15.90;8.33;;;21.60;99.90;;;;;;4842429;29;20204;-78
2022/08/28 06:49:14;;;;;;;14.77;8.00;;;21.60;99.90;;;;;;4841019;29;20687;-77
2022/08/28 06:51:41;;;;;;;19.70;8.60;;;21.80;99.90;;;;;;4840551;29;20250;-76
2022/08/28 06:54:08;;;;;;;13.03;7.63;;;21.80;99.90;;;;;;4841358;29;20555;-78
2022/08/28 06:56:35;;;;;;;21.00;8.53;;;22.00;99.90;;;;;;4842310;29;20673;-78
2022/08/28 06:59:03;;;;;;;15.57;8.23;;;22.00;99.90;;;;;;4841008;29;20227;-80
2022/08/28 07:01:34;;;;;;;13.60;8.00;;;22.20;99.90;;;;;;4841003;29;20207;-78
2022/08/28 07:04:08;;;;;;;13.93;8.30;;;22.30;99.90;;;;;;4840890;29;20610;-76
2022/08/28 07:06:39;;;;;;;13.83;8.50;;;22.40;99.90;;;;;;4841999;29;20198;-72
2022/08/28 07:09:10;;;;;;;13.03;8.27;;;22.50;99.90;;;;;;4841938;29;20665;-76
2022/08/28 07:11:38;;;;;;;15.40;8.60;;;22.70;99.90;;;;;;4841821;29;20236;-75
2022/08/28 07:14:06;;;;;;;17.13;8.60;;;22.80;99.90;;;;;;4840636;29;20202;-74
2022/08/28 07:16:36;;;;;;;16.13;8.73;;;22.90;99.90;;;;;;4825548;29;20225;-74
2022/08/28 07:19:09;;;;;;;15.40;8.90;;;22.90;99.90;;;;;;4840911;29;20305;-77
2022/08/28 07:21:40;;;;;;;18.43;9.60;;;23.00;99.90;;;;;;4840880;29;20259;-80
2022/08/28 07:24:09;;;;;;;17.07;9.13;;;23.20;99.90;;;;;;4825410;29;20207;-76
2022/08/28 07:26:39;;;;;;;12.85;8.38;;;23.30;99.90;;;;;;4841094;29;20203;-78
2022/08/28 07:29:07;;;;;;;13.70;9.17;;;23.50;99.90;;;;;;4842062;29;20194;-79
2022/08/28 07:31:39;;;;;;;14.52;9.55;;;23.60;99.90;;;;;;4841695;29;20230;-78
2022/08/28 07:34:08;;;;;;;14.50;9.10;;;23.80;99.90;;;;;;4843053;29;20649;-74
2022/08/28 07:36:35;;;;;;;17.20;9.15;;;23.90;99.90;;;;;;4845094;29;20353;-76
2022/08/28 07:39:03;;;;;;;18.15;9.93;;;24.00;99.90;;;;;;4844071;29;20199;-77
2022/08/28 07:41:32;;;;;;;12.13;8.60;;;24.10;99.90;;;;;;4843697;29;20202;-79
2022/08/28 07:46:45;;;;;;;14.07;8.77;;;24.40;99.90;;;;;;4845101;29;20228;-73
2022/08/28 07:49:16;;;;;;;14.60;9.02;;;24.50;99.90;;;;;;4844130;29;20206;-80
2022/08/28 07:51:43;;;;;;;13.30;8.87;;;24.60;99.90;;;;;;4843920;29;20248;-84
2022/08/28 07:54:13;;;;;;;15.85;8.27;;;24.70;99.90;;;;;;4844143;29;20289;-73
2022/08/28 07:56:44;;;;;;;15.70;9.00;;;24.80;99.90;;;;;;4843618;29;20202;-79
2022/08/28 07:59:11;;;;;;;15.55;9.25;;;24.90;99.90;;;;;;4843773;29;20297;-78
2022/08/28 08:01:45;;;;;;;14.18;8.85;;;25.00;99.90;;;;;;4843572;29;20219;-77
2022/08/28 08:04:14;;;;;;;14.65;8.70;;;25.10;99.90;;;;;;4843737;29;20706;-80
2022/08/28 08:06:43;;;;;;;16.50;8.77;;;25.30;99.90;;;;;;4843650;29;20621;-80
2022/08/28 08:09:13;;;;;;;14.30;9.00;;;25.60;99.90;;;;;;4843429;29;20301;-74
2022/08/28 08:11:40;;;;;;;15.15;9.00;;;25.80;99.90;;;;;;4843067;29;20322;-77
2022/08/28 08:14:07;;;;;;;14.02;8.77;;;26.50;99.90;;;;;;4843120;29;20293;-77
2022/08/28 08:16:37;;;;;;;17.50;8.60;;;27.80;99.90;;;;;;4843071;29;20226;-73
2022/08/28 08:19:08;;;;;;;14.93;8.15;;;28.90;99.90;;;;;;4843037;29;20218;-76
2022/08/28 08:21:36;;;;;;;13.10;8.15;;;29.70;99.90;;;;;;4844287;29;20251;-80
2022/08/28 08:24:03;;;;;;;18.50;8.15;;;30.30;99.90;;;;;;4844739;29;20206;-78
2022/08/28 08:26:31;;;;;;;10.60;7.45;;;30.70;99.90;;;;;;4843022;29;20198;-74
2022/08/28 08:28:58;;;;;;;13.80;7.03;;;31.00;99.90;;;;;;4842877;29;20206;-70
2022/08/28 08:31:28;;;;;;;15.10;7.47;;;31.10;97.70;;;;;;4842798;29;20234;-73
2022/08/28 08:34:00;;;;;;;15.40;7.97;;;30.90;97.90;;;;;;4844012;29;20198;-73
2022/08/28 08:36:29;;;;;;;14.60;7.47;;;31.00;96.80;;;;;;4842659;29;20202;-74
2022/08/28 08:38:58;;;;;;;9.95;6.57;;;31.40;94.90;;;;;;4844940;29;20273;-76
2022/08/28 08:41:50;;;;;;;12.43;6.82;;;31.70;93.90;;;;;;4849630;29;20218;-73
2022/08/28 08:44:24;;;;;;;11.48;6.93;;;31.40;92.30;;;;;;4847903;29;20214;-81
2022/08/28 08:47:11;;;;;;;14.90;7.13;;;31.60;92.90;;;;;;4842947;29;20250;-75
2022/08/28 08:49:49;;;;;;;11.70;6.93;;;31.60;93.10;;;;;;4851875;29;20243;-76
2022/08/28 08:52:37;;;;;;;13.15;6.82;;;32.00;91.70;;;;;;4844498;29;20782;-76
2022/08/28 08:55:33;;;;;;;14.82;7.35;;;31.60;91.80;;;;;;4842584;29;20217;-78
2022/08/28 08:58:14;;;;;;;14.00;6.68;;;31.60;92.00;;;;;;4842454;29;20214;-75
2022/08/28 09:00:59;;;;;;;13.15;6.78;;;32.10;90.70;;;;;;4842354;29;20216;-73
2022/08/28 09:03:57;;;;;;;12.20;6.78;;;32.20;90.30;;;;;;4842263;29;20226;-77
2022/08/28 09:06:43;;;;;;;11.98;6.40;;;31.80;90.00;;;;;;4842758;29;20275;-78
2022/08/28 09:09:24;;;;;;;10.85;6.47;;;31.50;89.50;;;;;;4841858;29;20224;-82
2022/08/28 09:11:55;;;;;;;12.32;6.68;;;31.30;89.30;;;;;;4843470;29;20235;-76
2022/08/28 09:14:39;;;;;;;16.92;7.28;;;31.50;90.70;;;;;;4842257;29;20216;-70
2022/08/28 09:17:09;;;;;;;10.13;6.78;;;31.90;89.90;;;;;;4827337;29;20645;-81
2022/08/28 09:19:36;;;;;;;10.77;6.57;;;32.20;89.00;;;;;;4843269;29;20206;-82
2022/08/28 09:22:03;;;;;;;11.05;6.38;;;32.40;87.70;;;;;;4841962;29;20196;-72
2022/08/28 09:24:34;;;;;;;12.88;6.60;;;32.40;87.60;;;;;;4841930;29;20221;-70
2022/08/28 09:27:23;;;;;;;12.60;6.30;;;32.50;86.30;;;;;;4843282;29;20216;-71
2022/08/28 09:29:54;;;;;;;12.45;6.20;;;32.90;86.20;;;;;;4842159;29;20228;-71
2022/08/28 09:32:44;;;;;;;13.85;7.15;;;33.40;84.70;;;;;;4841227;29;20237;-70
2022/08/28 09:35:26;;;;;;;15.80;6.50;;;33.90;82.30;;;;;;4841571;29;20206;-69
2022/08/28 09:37:54;;;;;;;12.98;6.00;;;33.10;81.40;;;;;;4841469;29;20222;-69
2022/08/28 09:40:23;;;;;;;8.70;5.68;;;32.60;82.30;;;;;;4841801;29;20702;-70
2022/08/28 09:43:26;;;;;;;15.48;6.10;;;33.00;81.50;;;;;;4841164;29;20262;-72
2022/08/28 09:45:58;;;;;;;13.57;6.13;;;33.00;81.50;;;;;;4841514;29;20301;-72
2022/08/28 09:48:34;;;;;;;13.20;5.97;;;33.20;80.90;;;;;;4842584;29;20199;-71
2022/08/28 09:51:08;;;;;;;9.43;5.75;;;33.30;79.50;;;;;;4842573;29;20432;-71
2022/08/28 09:54:06;;;;;;;13.70;5.82;;;33.30;79.30;;;;;;4842532;29;20719;-71
2022/08/28 09:56:38;;;;;;;9.70;5.70;;;33.20;80.60;;;;;;4825831;29;20316;-71
2022/08/28 09:59:09;;;;;;;9.00;5.82;;;33.80;77.50;;;;;;4826789;29;20206;-71
2022/08/28 10:01:44;;;;;;;12.25;5.95;;;34.30;75.20;;;;;;4842516;29;20241;-71
2022/08/28 10:04:33;;;;;;;13.63;5.75;;;34.70;74.50;;;;;;4842402;29;20233;-71
2022/08/28 10:07:37;;;;;;;18.60;6.07;;;34.80;73.90;;;;;;4826195;29;20198;-70
2022/08/28 10:10:29;;;;;;;15.13;6.32;;;35.00;72.00;;;;;;4770917;29;20689;-71
2022/08/28 10:13:04;;;;;;;13.10;5.72;;;35.30;70.50;;;;;;4785855;30;20372;-71
2022/08/28 10:15:51;;;;;;;8.25;5.18;;;35.20;71.40;;;;;;4785881;30;20239;-71
2022/08/28 10:18:21;;;;;;;14.40;5.90;;;35.00;72.90;;;;;;4785801;30;20283;-71
2022/08/28 10:21:26;;;;;;;9.23;5.47;;;35.30;71.80;;;;;;4785158;30;20631;-70
2022/08/28 10:24:07;;;;;;;12.27;5.32;;;35.40;70.50;;;;;;4769188;30;20310;-70
2022/08/28 10:26:50;;;;;;;8.10;4.82;;;35.80;68.20;;;;;;4785763;30;20292;-70
2022/08/28 10:29:41;;;;;;;15.75;5.65;;;35.90;66.10;;;;;;4785665;30;20239;-70
2022/08/28 10:32:32;;;;;;;15.27;5.93;;;36.40;66.10;;;;;;4785223;30;20232;-70
2022/08/28 10:35:24;;;;;;;12.25;5.00;;;36.20;65.90;;;;;;4785494;30;20256;-70
2022/08/28 10:37:59;;;;;;;9.63;5.07;;;36.00;63.90;;;;;;4785535;30;20279;-71
2022/08/28 10:40:30;;;;;;;11.98;4.72;;;35.90;64.10;;;;;;4785681;30;20199;-71
2022/08/28 10:43:13;;;;;;;10.15;6.38;;;36.50;62.40;;;;;;4785725;30;20240;-72
2022/08/28 10:45:40;;;;;;;6.70;4.75;;;36.40;63.00;;;;;;4785471;30;20441;-71
2022/08/28 10:48:48;;;;;;;8.23;5.10;;;36.70;63.00;;;;;;4825064;29;20213;-72
2022/08/28 10:51:18;;;;;;;14.73;4.85;;;36.70;63.30;;;;;;4792919;29;20339;-71
2022/08/28 10:54:06;;;;;;;10.80;4.90;;;37.00;60.30;;;;;;4803293;29;20207;-70
2022/08/28 10:56:45;;;;;;;7.57;4.68;;;37.10;60.30;;;;;;4803212;29;20226;-70
2022/08/28 10:59:24;;;;;;;13.13;5.03;;;37.40;60.00;;;;;;4788288;29;20203;-71
2022/08/28 11:01:51;;;;;;;9.95;5.15;;;37.40;59.50;;;;;;4803128;29;20299;-70
2022/08/28 11:04:22;;;;;;;10.98;5.28;;;37.30;61.50;;;;;;4787696;29;20204;-71
2022/08/28 11:07:00;;;;;;;12.15;5.03;;;38.00;60.90;;;;;;4803150;29;20223;-71
2022/08/28 11:09:46;;;;;;;12.70;5.28;;;38.60;59.80;;;;;;4775003;29;20211;-71
2022/08/28 11:12:16;;;;;;;18.90;5.80;;;39.30;59.10;;;;;;4806908;29;20249;-71
2022/08/28 11:14:46;;;;;;;8.07;4.63;;;39.20;57.50;;;;;;4792006;29;20307;-71
2022/08/28 11:17:29;;;;;;;10.27;4.55;;;38.50;58.40;;;;;;4806788;29;20207;-71
2022/08/28 11:20:16;;;;;;;7.43;4.18;;;38.60;57.20;;;;;;4806442;29;20302;-71
2022/08/28 11:22:50;;;;;;;7.47;4.30;;;39.10;56.60;;;;;;4791322;29;20203;-72
2022/08/28 11:25:30;;;;;;;6.13;4.15;;;39.20;54.40;;;;;;4825187;29;20214;-71
2022/08/28 11:28:22;;;;;;;14.88;4.78;;;39.10;53.20;;;;;;4844958;29;20198;-72
2022/08/28 11:31:05;;;;;;;10.77;4.38;;;39.10;52.30;;;;;;4843963;29;20221;-71
2022/08/28 11:33:51;;;;;;;9.23;4.70;;;38.10;52.40;;;;;;4843703;29;20238;-70
2022/08/28 11:36:18;;;;;;;8.50;4.43;;;38.00;53.60;;;;;;4843588;29;20230;-71
2022/08/28 11:38:45;;;;;;;6.95;4.10;;;37.90;54.10;;;;;;4843656;29;20320;-70
2022/08/28 11:41:23;;;;;;;8.18;4.18;;;38.70;53.90;;;;;;4843774;29;20300;-73
2022/08/28 11:44:08;;;;;;;11.07;4.63;;;38.70;53.20;;;;;;4843596;29;20220;-71
2022/08/28 11:46:39;;;;;;;8.70;4.85;;;39.00;53.80;;;;;;4843968;29;20263;-71
2022/08/28 11:49:28;;;;;;;13.85;5.03;;;39.40;53.80;;;;;;4843515;29;20262;-72
2022/08/28 11:51:54;;;;;;;7.45;4.57;;;39.20;54.20;;;;;;4844360;29;20234;-71
2022/08/28 11:54:45;;;;;;;8.88;5.18;;;38.90;54.20;;;;;;4828511;29;20194;-71
2022/08/28 11:57:15;;;;;;;6.90;4.38;;;39.10;55.00;;;;;;4828221;29;20198;-72
2022/08/28 11:59:57;;;;;;;9.20;4.30;;;39.70;53.70;;;;;;4828384;29;20680;-71
2022/08/28 12:02:39;;;;;;;9.85;4.75;;;39.40;51.80;;;;;;4827651;29;20403;-71
2022/08/28 12:05:15;;;;;;;9.50;4.25;;;39.80;51.90;;;;;;4828018;29;20224;-71
2022/08/28 12:07:45;;;;;;;11.35;4.28;;;40.40;50.80;;;;;;4827921;29;20206;-71
2022/08/28 12:10:21;;;;;;;10.43;4.70;;;40.60;49.00;;;;;;4827934;29;20210;-71
2022/08/28 12:12:56;;;;;;;10.63;4.30;;;40.60;49.00;;;;;;4844291;29;20249;-71
2022/08/28 12:15:26;;;;;;;6.65;3.70;;;40.70;49.20;;;;;;4828009;29;20204;-71
2022/08/28 12:18:25;;;;;;;10.57;3.97;;;40.20;46.00;;;;;;4827876;29;20202;-71
2022/08/28 12:21:02;;;;;;;11.85;4.18;;;40.10;47.10;;;;;;4786232;29;20213;-71
2022/08/28 12:24:11;;;;;;;10.13;4.15;;;40.50;45.80;;;;;;4772610;30;20212;-73
2022/08/28 12:26:45;;;;;;;11.63;4.45;;;39.80;47.10;;;;;;4787503;30;20293;-71
2022/08/28 12:29:42;;;;;;;13.73;4.25;;;39.90;47.40;;;;;;4787633;30;20613;-70
2022/08/28 12:32:24;;;;;;;11.02;4.40;;;39.80;47.60;;;;;;4772098;30;20235;-72
2022/08/28 12:35:16;;;;;;;12.65;4.60;;;39.10;47.60;;;;;;4787305;30;20222;-70
2022/08/28 12:37:59;;;;;;;9.65;4.10;;;38.40;49.00;;;;;;4787382;30;20267;-71
2022/08/28 12:40:53;;;;;;;12.77;4.60;;;37.70;51.00;;;;;;4773144;30;20299;-72
2022/08/28 12:43:42;;;;;;;9.95;4.38;;;37.60;50.90;;;;;;4787269;30;20204;-71
2022/08/28 12:46:22;;;;;;;7.82;4.28;;;38.10;50.20;;;;;;4787035;30;20368;-71
2022/08/28 12:48:55;;;;;;;9.40;4.60;;;38.70;49.40;;;;;;4787410;30;20212;-71
2022/08/28 12:51:25;;;;;;;10.63;4.43;;;39.00;48.80;;;;;;4771821;30;20792;-70
2022/08/28 12:53:57;;;;;;;9.32;4.75;;;39.40;48.70;;;;;;4786920;30;20706;-71
2022/08/28 12:56:29;;;;;;;10.02;4.55;;;39.70;48.70;;;;;;4806977;29;20649;-72
2022/08/28 12:59:23;;;;;;;10.48;4.53;;;39.80;46.50;;;;;;4826922;29;20236;-71
2022/08/28 13:01:53;;;;;;;7.53;4.28;;;39.90;45.70;;;;;;4827262;29;20224;-71
2022/08/28 13:04:32;;;;;;;12.85;4.60;;;39.60;46.10;;;;;;4827327;29;20198;-71
2022/08/28 13:07:06;;;;;;;9.15;4.50;;;39.30;46.50;;;;;;4827145;29;20627;-71
2022/08/28 13:09:34;;;;;;;7.45;4.53;;;39.00;46.60;;;;;;4827664;29;20221;-73